• Join FlightAware (Why Join?)
  • Login
  • US Flag 
11:13PM EDT


 

Airport Tracker/Info


-or-


 

Live Flight TrackerFlight Track Log ✈ EJA982 ✈ 11-May-2013 ✈ KPHL - KLGA

Flight Track Log - Related Links

Times and Time Zones

All times are in EDT time to prevent confusion due to time zone crossing. See the EJA982 flight status page for this flight to view local times or setup timezone preferences in your user account.

Time Position Orientation Groundspeed Altitude Reporting Facility
EDT Latitude Longitude Course Direction KTS MPH feet Rate Location/Type
10:47AM 39.8667 -75.2667 207° Southwest 178 205 800  Level Philadelphia TRACON
10:48AM 39.8167 -75.3000 207° Southwest 223 257 3,600 3,120 Climbing Philadelphia TRACON
10:49AM 39.7833 -75.2500 131° Southeast 305 351 6,800 2,160 Climbing Philadelphia TRACON
10:50AM 39.8000 -75.1500 78° East 331 381 8,000 600 Climbing Philadelphia TRACON
10:51AM 39.8333 -75.0333 70° East 320 368 8,000  Level Philadelphia TRACON
10:52AM 39.9000 -74.9500 44° Northeast 342 394 8,000  Level Philadelphia TRACON
10:53AM 39.9500 -74.8500 57° Northeast 317 365 8,000  Level Philadelphia TRACON
10:54AM 40.0167 -74.7667 44° Northeast 327 376 8,000  Level Philadelphia TRACON
10:55AM 40.0833 -74.6667 49° Northeast 327 376 8,000  Level New York TRACON
10:56AM 40.1500 -74.5833 44° Northeast 329 379 8,000  Level New York TRACON
10:57AM 40.2000 -74.5000 52° Northeast 331 381 8,000  Level New York TRACON
10:58AM 40.2667 -74.4000 49° Northeast 327 376 8,000  Level New York TRACON
10:59AM 40.3333 -74.3333 37° Northeast 321 369 8,000  Level New York TRACON
11:00AM 40.3833 -74.2500 52° Northeast 321 369 8,000 -120 Level New York TRACON
11:01AM 40.4667 -74.1667 37° Northeast 329 379 7,800 -780 Descending New York TRACON
11:02AM 40.5333 -74.1000 37° Northeast 316 364 6,500 -1,500 Descending New York TRACON
11:03AM 40.6167 -74.0833 North 295 339 5,000 -1,260 Descending New York TRACON
11:04AM 40.6833 -74.0667 11° North 294 338 4,000 -540 Descending New York TRACON
11:05AM 40.7500 -74.0333 21° North 297 342 4,000  Level New York TRACON
11:06AM 40.8167 -73.9833 30° Northeast 262 302 4,000  Level New York TRACON
11:07AM 40.8667 -73.9500 27° Northeast 217 250 4,000  Level New York TRACON
11:08AM 40.9167 -73.9000 37° Northeast 221 254 4,000 -240 Level New York TRACON
11:09AM 40.9667 -73.8500 37° Northeast 225 259 3,600 -540 Descending New York TRACON
11:10AM 40.9500 -73.7833 108° East 206 237 3,000 -720 Descending New York TRACON
11:11AM 40.9167 -73.7667 159° South 151 174 2,300 -540 Descending New York TRACON
11:12AM 40.8833 -73.8000 217° Southwest 133 153 2,000 -360 Descending New York TRACON
11:13AM 40.8500 -73.8167 201° Southwest 116 133 1,600 -540 Descending New York TRACON
11:14AM 40.8167 -73.8333 201° Southwest 129 148 1,000 -720 Descending New York TRACON
11:15AM 40.8000 -73.8667 237° Southwest 128 147 300 -720 Descending New York TRACON